Time;durP1;ratioP1;P1;durP2;ratioP2;P2;SDS_P1;SDS_P2;PMS_P1;PMS_P2;Temp;Humidity;BMP_temperature;BMP_pressure;BME280_temperature;BME280_humidity;BME280_pressure;Samples;Min_cycle;Max_cycle;Signal;HPM_P1;HPM_P2
2021/12/02 00:00:18;;;;;;;;;;;;;;;;;;5073782;28;19916;-70
2021/12/02 00:02:44;;;;;;;;;;;;;;;;;;5075321;28;19916;-71
2021/12/02 00:05:10;;;;;;;;;;;;;;;;;;5075413;28;19904;-71
2021/12/02 00:07:36;;;;;;;;;;;;;;;;;;5075477;28;19917;-71
2021/12/02 00:10:01;;;;;;;;;;;;;;;;;;5075251;28;20378;-71
2021/12/02 00:12:27;;;;;;;;;;;;;;;;;;5075221;28;19928;-70
2021/12/02 00:14:53;;;;;;;;;;;;;;;;;;5075451;28;19958;-70
2021/12/02 00:17:28;;;;;;;;;;;;;;;;;;5075412;28;19912;-71
2021/12/02 00:22:39;;;;;;;;;;;;;;;;;;5074904;28;19915;-70
2021/12/02 00:25:05;;;;;;;;;;;;;;;;;;5075181;28;19909;-71
2021/12/02 00:27:31;;;;;;;;;;;;;;;;;;5075305;28;20353;-71
2021/12/02 00:29:57;;;;;;;;;;;;;;;;;;5075060;28;20356;-70
2021/12/02 00:32:23;;;;;;;;;;;;;;;;;;5074901;28;19912;-71
2021/12/02 00:34:49;;;;;;;;;;;;;;;;;;5075145;28;19909;-70
2021/12/02 00:37:15;;;;;;;;;;;;;;;;;;5074888;28;20367;-71
2021/12/02 00:39:41;;;;;;;;;;;;;;;;;;5074891;28;19962;-70
2021/12/02 00:42:06;;;;;;;;;;;;;;;;;;5074384;28;19940;-71
2021/12/02 00:44:32;;;;;;;;;;;;;;;;;;5074769;28;20017;-71
2021/12/02 00:47:00;;;;;;;;;;;;;;;;;;5074685;28;20269;-70
2021/12/02 00:49:26;;;;;;;;;;;;;;;;;;5074789;28;19915;-71
2021/12/02 00:51:52;;;;;;;;;;;;;;;;;;5074701;28;19909;-70
2021/12/02 00:54:18;;;;;;;;;;;;;;;;;;5074597;28;20007;-70
2021/12/02 00:56:43;;;;;;;;;;;;;;;;;;5074647;28;19908;-71
2021/12/02 00:59:09;;;;;;;;;;;;;;;;;;5074892;28;19913;-71
2021/12/02 01:01:36;;;;;;;;;;;;;;;;;;5082625;28;19920;-71
2021/12/02 01:04:02;;;;;;;;;;;;;;;;;;5084986;28;20284;-71
2021/12/02 01:06:28;;;;;;;;;;;;;;;;;;5082078;28;19920;-71
2021/12/02 01:08:54;;;;;;;;;;;;;;;;;;5085463;28;20015;-71
2021/12/02 01:11:20;;;;;;;;;;;;;;;;;;5081563;28;20297;-70
2021/12/02 01:13:46;;;;;;;;;;;;;;;;;;5084005;28;20017;-71
2021/12/02 01:16:12;;;;;;;;;;;;;;;;;;5083275;28;19912;-71
2021/12/02 01:18:37;;;;;;;;;;;;;;;;;;5082996;28;20368;-71
2021/12/02 01:21:03;;;;;;;;;;;;;;;;;;5084416;28;19927;-70
2021/12/02 01:23:29;;;;;;;;;;;;;;;;;;5081780;28;19912;-71
2021/12/02 01:25:55;;;;;;;;;;;;;;;;;;5085116;28;20328;-70
2021/12/02 01:28:21;;;;;;;;;;;;;;;;;;5081756;28;19917;-71
2021/12/02 01:30:47;;;;;;;;;;;;;;;;;;5081481;28;20392;-70
2021/12/02 01:33:13;;;;;;;;;;;;;;;;;;5083128;28;19913;-71
2021/12/02 01:35:38;;;;;;;;;;;;;;;;;;5083350;28;19912;-70
2021/12/02 01:38:04;;;;;;;;;;;;;;;;;;5082057;28;20007;-71
2021/12/02 01:40:30;;;;;;;;;;;;;;;;;;5084440;28;19912;-70
2021/12/02 01:42:56;;;;;;;;;;;;;;;;;;5081002;28;19992;-71
2021/12/02 01:45:22;;;;;;;;;;;;;;;;;;5084228;28;19913;-71
2021/12/02 01:47:49;;;;;;;;;;;;;;;;;;5081942;28;19927;-71
2021/12/02 01:50:14;;;;;;;;;;;;;;;;;;5083143;28;19938;-71
2021/12/02 01:52:40;;;;;;;;;;;;;;;;;;5082741;28;19970;-71
2021/12/02 01:55:06;;;;;;;;;;;;;;;;;;5082442;28;19912;-71
2021/12/02 01:57:32;;;;;;;;;;;;;;;;;;5083648;28;19916;-71
2021/12/02 01:59:58;;;;;;;;;;;;;;;;;;5081004;28;20338;-71
2021/12/02 02:02:24;;;;;;;;;;;;;;;;;;5084359;28;20007;-70
2021/12/02 02:04:50;;;;;;;;;;;;;;;;;;5081461;28;19919;-71
2021/12/02 02:07:16;;;;;;;;;;;;;;;;;;5083143;28;19926;-70
2021/12/02 02:09:41;;;;;;;;;;;;;;;;;;5082522;28;20391;-71
2021/12/02 02:12:07;;;;;;;;;;;;;;;;;;5081594;28;19985;-71
2021/12/02 02:14:33;;;;;;;;;;;;;;;;;;5083290;28;19923;-70
2021/12/02 02:17:04;;;;;;;;;;;;;;;;;;5080844;28;20273;-71
2021/12/02 02:19:32;;;;;;;;;;;;;;;;;;5084046;28;20004;-70
2021/12/02 02:21:58;;;;;;;;;;;;;;;;;;5080663;28;20280;-71
2021/12/02 02:24:24;;;;;;;;;;;;;;;;;;5083129;28;19923;-71
2021/12/02 02:26:49;;;;;;;;;;;;;;;;;;5080967;28;19923;-70
2021/12/02 02:29:18;;;;;;;;;;;;;;;;;;5082984;28;19999;-70
2021/12/02 02:31:44;;;;;;;;;;;;;;;;;;5081828;28;19912;-70
2021/12/02 02:34:10;;;;;;;;;;;;;;;;;;5081877;28;20265;-71
2021/12/02 02:36:37;;;;;;;;;;;;;;;;;;5082979;28;19957;-71
2021/12/02 02:39:03;;;;;;;;;;;;;;;;;;5080605;28;20454;-70
2021/12/02 02:41:29;;;;;;;;;;;;;;;;;;5083731;28;19940;-70
2021/12/02 02:43:57;;;;;;;;;;;;;;;;;;5080489;28;19913;-70
2021/12/02 02:46:22;;;;;;;;;;;;;;;;;;5083543;28;20466;-70
2021/12/02 02:48:48;;;;;;;;;;;;;;;;;;5080498;28;19967;-71
2021/12/02 02:51:14;;;;;;;;;;;;;;;;;;5082392;28;20269;-70
2021/12/02 02:53:40;;;;;;;;;;;;;;;;;;5081920;28;20007;-71
2021/12/02 02:56:10;;;;;;;;;;;;;;;;;;5081206;28;19916;-71
2021/12/02 02:58:58;;;;;;;;;;;;;;;;;;5083926;28;19920;-70
2021/12/02 03:01:37;;;;;;;;;;;;;;;;;;5076185;28;20264;-70
2021/12/02 03:04:23;;;;;;;;;;;;;;;;;;5078159;28;19916;-70
2021/12/02 03:07:00;;;;;;;;;;;;;;;;;;5080775;28;19966;-71
2021/12/02 03:12:06;;;;;;;;;;;;;;;;;;5076550;28;20399;-71
2021/12/02 03:16:36;;;;;;;;;;;;;;;;;;5083059;28;19935;-71
2021/12/02 03:17:18;;;;;;;;;;;;;;;;;;5082162;28;19966;-71
2021/12/02 03:19:44;;;;;;;;;;;;;;;;;;5063029;28;19916;-71
2021/12/02 03:22:10;;;;;;;;;;;;;;;;;;5081537;28;19916;-70
2021/12/02 03:24:37;;;;;;;;;;;;;;;;;;5081802;28;21269;-70
2021/12/02 03:27:03;;;;;;;;;;;;;;;;;;5080561;28;19927;-71
2021/12/02 03:29:29;;;;;;;;;;;;;;;;;;5083204;28;19958;-71
2021/12/02 03:31:55;;;;;;;;;;;;;;;;;;5079898;28;19912;-70
2021/12/02 03:34:21;;;;;;;;;;;;;;;;;;5082996;28;20296;-70
2021/12/02 03:36:47;;;;;;;;;;;;;;;;;;5084306;28;19962;-71
2021/12/02 03:39:12;;;;;;;;;;;;;;;;;;5085637;28;19923;-71
2021/12/02 03:41:38;;;;;;;;;;;;;;;;;;5085511;28;19918;-70
2021/12/02 03:44:04;;;;;;;;;;;;;;;;;;5084122;28;19912;-70
2021/12/02 03:46:30;;;;;;;;;;;;;;;;;;5086649;28;19920;-71
2021/12/02 03:48:56;;;;;;;;;;;;;;;;;;5083563;28;19912;-70
2021/12/02 03:51:22;;;;;;;;;;;;;;;;;;5086820;28;20330;-71
2021/12/02 03:53:48;;;;;;;;;;;;;;;;;;5084160;28;19920;-71
2021/12/02 03:56:14;;;;;;;;;;;;;;;;;;5085420;28;19920;-71
2021/12/02 03:58:40;;;;;;;;;;;;;;;;;;5084860;28;19974;-71
2021/12/02 04:01:06;;;;;;;;;;;;;;;;;;5084102;28;19920;-70
2021/12/02 04:03:31;;;;;;;;;;;;;;;;;;5086315;28;20026;-71
2021/12/02 04:05:57;;;;;;;;;;;;;;;;;;5082858;28;20002;-71
2021/12/02 04:08:30;;;;;;;;;;;;;;;;;;5086757;28;19928;-70
2021/12/02 04:11:11;;;;;;;;;;;;;;;;;;5079137;28;20376;-70
2021/12/02 04:13:41;;;;;;;;;;;;;;;;;;5082220;28;19924;-71
2021/12/02 04:16:14;;;;;;;;;;;;;;;;;;5085087;28;20272;-71
2021/12/02 04:18:40;;;;;;;;;;;;;;;;;;5084599;28;19960;-71
2021/12/02 04:21:06;;;;;;;;;;;;;;;;;;5085023;28;20045;-70
2021/12/02 04:23:32;;;;;;;;;;;;;;;;;;5083289;28;19970;-70
2021/12/02 04:25:57;;;;;;;;;;;;;;;;;;5086142;28;19960;-71
2021/12/02 04:28:23;;;;;;;;;;;;;;;;;;5078664;28;20288;-71
2021/12/02 04:30:49;;;;;;;;;;;;;;;;;;5085642;28;20002;-71
2021/12/02 04:33:15;;;;;;;;;;;;;;;;;;5095228;28;19961;-70
2021/12/02 04:35:41;;;;;;;;;;;;;;;;;;5095321;28;20004;-71
2021/12/02 04:38:07;;;;;;;;;;;;;;;;;;5095086;28;20406;-71
2021/12/02 04:40:35;;;;;;;;;;;;;;;;;;5095103;28;19961;-71
2021/12/02 04:43:01;;;;;;;;;;;;;;;;;;5095113;28;19999;-71
2021/12/02 04:45:27;;;;;;;;;;;;;;;;;;5095057;28;19959;-71
2021/12/02 04:47:53;;;;;;;;;;;;;;;;;;5094083;28;19916;-71
2021/12/02 04:50:19;;;;;;;;;;;;;;;;;;5095021;28;20003;-70
2021/12/02 04:52:45;;;;;;;;;;;;;;;;;;5094407;28;20387;-71
2021/12/02 04:55:10;;;;;;;;;;;;;;;;;;5076645;28;19961;-70
2021/12/02 04:57:36;;;;;;;;;;;;;;;;;;5094845;28;19910;-70
2021/12/02 05:00:02;;;;;;;;;;;;;;;;;;5076625;28;20379;-70
2021/12/02 05:02:28;;;;;;;;;;;;;;;;;;5094343;28;19904;-71
2021/12/02 05:04:54;;;;;;;;;;;;;;;;;;5094713;28;19909;-71
2021/12/02 05:07:20;;;;;;;;;;;;;;;;;;5094360;28;20015;-71
2021/12/02 05:09:46;;;;;;;;;;;;;;;;;;5094507;28;19909;-71
2021/12/02 05:12:12;;;;;;;;;;;;;;;;;;5094144;28;19924;-70
2021/12/02 05:14:38;;;;;;;;;;;;;;;;;;5094526;28;19912;-71
2021/12/02 05:17:04;;;;;;;;;;;;;;;;;;5094228;28;20360;-71
2021/12/02 05:19:29;;;;;;;;;;;;;;;;;;5094341;28;19909;-70
2021/12/02 05:21:55;;;;;;;;;;;;;;;;;;5094121;28;19912;-70
2021/12/02 05:24:21;;;;;;;;;;;;;;;;;;5076115;28;19908;-70
2021/12/02 05:26:47;;;;;;;;;;;;;;;;;;5094166;28;20119;-71
2021/12/02 05:29:13;;;;;;;;;;;;;;;;;;5094247;28;19912;-71
2021/12/02 05:31:39;;;;;;;;;;;;;;;;;;5093734;28;20356;-71
2021/12/02 05:34:05;;;;;;;;;;;;;;;;;;5094196;28;19908;-71
2021/12/02 05:36:31;;;;;;;;;;;;;;;;;;5094014;28;20003;-70
2021/12/02 05:38:56;;;;;;;;;;;;;;;;;;5094141;28;19915;-71
2021/12/02 05:41:22;;;;;;;;;;;;;;;;;;5093665;28;20326;-70
2021/12/02 05:43:48;;;;;;;;;;;;;;;;;;5093742;28;19960;-70
2021/12/02 05:46:14;;;;;;;;;;;;;;;;;;5093807;28;20006;-71
2021/12/02 05:48:40;;;;;;;;;;;;;;;;;;5093645;28;19912;-71
2021/12/02 05:51:06;;;;;;;;;;;;;;;;;;5093507;28;20001;-71
2021/12/02 05:53:32;;;;;;;;;;;;;;;;;;5093709;28;19908;-71
2021/12/02 05:55:58;;;;;;;;;;;;;;;;;;5093436;28;19948;-71
2021/12/02 05:58:23;;;;;;;;;;;;;;;;;;5093195;28;19908;-71
2021/12/02 06:00:50;;;;;;;;;;;;;;;;;;5093592;28;19913;-71
2021/12/02 06:03:16;;;;;;;;;;;;;;;;;;5093539;28;20318;-70
2021/12/02 06:05:44;;;;;;;;;;;;;;;;;;5093458;28;19912;-70
2021/12/02 06:08:10;;;;;;;;;;;;;;;;;;5093598;28;19916;-71
2021/12/02 06:10:36;;;;;;;;;;;;;;;;;;5093412;28;19908;-70
2021/12/02 06:13:02;;;;;;;;;;;;;;;;;;5093358;28;19942;-70
2021/12/02 06:15:28;;;;;;;;;;;;;;;;;;5093434;28;19951;-70
2021/12/02 06:17:54;;;;;;;;;;;;;;;;;;5093339;28;20279;-70
2021/12/02 06:20:19;;;;;;;;;;;;;;;;;;5093165;28;19958;-71
2021/12/02 06:22:45;;;;;;;;;;;;;;;;;;5093291;28;19915;-70
2021/12/02 06:27:40;;;;;;;;;;;;;;;;;;5072567;28;20007;-70
2021/12/02 06:30:06;;;;;;;;;;;;;;;;;;5073072;28;19997;-71
2021/12/02 06:32:31;;;;;;;;;;;;;;;;;;5073051;28;20376;-71
2021/12/02 06:34:57;;;;;;;;;;;;;;;;;;5072502;28;20046;-71
2021/12/02 06:37:23;;;;;;;;;;;;;;;;;;5072993;28;19915;-71
2021/12/02 06:39:49;;;;;;;;;;;;;;;;;;5073018;28;19916;-71
2021/12/02 06:42:15;;;;;;;;;;;;;;;;;;5072710;28;19908;-70
2021/12/02 06:44:41;;;;;;;;;;;;;;;;;;5072982;28;19909;-70
2021/12/02 06:47:07;;;;;;;;;;;;;;;;;;5072789;28;19912;-71
2021/12/02 06:49:34;;;;;;;;;;;;;;;;;;5054406;28;19913;-71
2021/12/02 06:52:00;;;;;;;;;;;;;;;;;;5072559;28;19909;-70
2021/12/02 06:54:26;;;;;;;;;;;;;;;;;;5072270;28;19920;-71
2021/12/02 06:56:52;;;;;;;;;;;;;;;;;;5072749;28;19912;-71
2021/12/02 06:59:18;;;;;;;;;;;;;;;;;;5072138;28;19951;-71
2021/12/02 07:01:45;;;;;;;;;;;;;;;;;;5072178;28;19909;-71
2021/12/02 07:04:11;;;;;;;;;;;;;;;;;;5054231;28;20368;-71
2021/12/02 07:06:38;;;;;;;;;;;;;;;;;;5072552;28;19924;-71
2021/12/02 07:09:04;;;;;;;;;;;;;;;;;;5072816;28;19969;-71
2021/12/02 07:11:30;;;;;;;;;;;;;;;;;;5075533;28;19916;-70
2021/12/02 07:14:01;;;;;;;;;;;;;;;;;;5076698;28;19915;-71
2021/12/02 07:16:27;;;;;;;;;;;;;;;;;;5076791;28;20230;-71
2021/12/02 07:18:55;;;;;;;;;;;;;;;;;;5076494;28;20415;-70
2021/12/02 07:21:20;;;;;;;;;;;;;;;;;;5076493;28;20277;-70
2021/12/02 07:23:46;;;;;;;;;;;;;;;;;;5076356;28;19954;-70
2021/12/02 07:26:12;;;;;;;;;;;;;;;;;;5076333;28;19962;-71
2021/12/02 07:28:38;;;;;;;;;;;;;;;;;;5076347;28;19916;-71
2021/12/02 07:31:05;;;;;;;;;;;;;;;;;;5076141;28;19908;-70
2021/12/02 07:33:31;;;;;;;;;;;;;;;;;;5076328;28;19909;-71
2021/12/02 07:35:57;;;;;;;;;;;;;;;;;;5076270;28;20332;-71
2021/12/02 07:38:23;;;;;;;;;;;;;;;;;;5076151;28;19909;-71
2021/12/02 07:40:49;;;;;;;;;;;;;;;;;;5076102;28;19909;-71
2021/12/02 07:43:15;;;;;;;;;;;;;;;;;;5075916;28;19915;-71
2021/12/02 07:45:41;;;;;;;;;;;;;;;;;;5075841;28;19932;-70
2021/12/02 07:48:08;;;;;;;;;;;;;;;;;;5075620;28;20012;-70
2021/12/02 07:50:36;;;;;;;;;;;;;;;;;;5057976;28;19909;-70
2021/12/02 07:53:02;;;;;;;;;;;;;;;;;;5075745;28;19915;-71
2021/12/02 07:55:28;;;;;;;;;;;;;;;;;;5075812;28;19908;-71
2021/12/02 07:57:53;;;;;;;;;;;;;;;;;;5075750;28;20323;-71
2021/12/02 08:00:19;;;;;;;;;;;;;;;;;;5075093;28;19956;-71
2021/12/02 08:02:45;;;;;;;;;;;;;;;;;;5075256;28;19914;-71
2021/12/02 08:05:11;;;;;;;;;;;;;;;;;;5075546;28;20292;-71
2021/12/02 08:07:39;;;;;;;;;;;;;;;;;;5075409;28;19931;-70
2021/12/02 08:10:05;;;;;;;;;;;;;;;;;;5062376;28;19909;-72
2021/12/02 08:12:31;;;;;;;;;;;;;;;;;;5055236;28;19920;-72
2021/12/02 08:14:56;;;;;;;;;;;;;;;;;;5055285;28;19908;-71
2021/12/02 08:17:22;;;;;;;;;;;;;;;;;;5055514;28;20380;-71
2021/12/02 08:19:48;;;;;;;;;;;;;;;;;;5053880;28;19913;-72
2021/12/02 08:22:14;;;;;;;;;;;;;;;;;;5073100;28;20007;-68
2021/12/02 08:24:40;;;;;;;;;;;;;;;;;;5075069;28;20454;-69
2021/12/02 08:27:06;;;;;;;;;;;;;;;;;;5074593;28;20030;-69
2021/12/02 08:29:32;;;;;;;;;;;;;;;;;;5075013;28;19909;-70
2021/12/02 08:31:59;;;;;;;;;;;;;;;;;;5056726;28;20261;-69
2021/12/02 08:34:25;;;;;;;;;;;;;;;;;;5056625;28;19915;-69
2021/12/02 08:36:54;;;;;;;;;;;;;;;;;;5074227;28;20009;-70
2021/12/02 08:39:26;;;;;;;;;;;;;;;;;;5074428;28;19920;-69
2021/12/02 08:41:54;;;;;;;;;;;;;;;;;;5070450;28;19917;-69
2021/12/02 08:44:20;;;;;;;;;;;;;;;;;;5055872;28;19915;-70
2021/12/02 08:46:47;;;;;;;;;;;;;;;;;;5074703;28;19913;-68
2021/12/02 08:49:13;;;;;;;;;;;;;;;;;;5074958;28;19915;-69
2021/12/02 08:51:40;;;;;;;;;;;;;;;;;;5074673;28;19908;-69
2021/12/02 08:54:06;;;;;;;;;;;;;;;;;;5074647;28;19931;-69
2021/12/02 08:56:32;;;;;;;;;;;;;;;;;;5075688;28;20352;-72
2021/12/02 08:58:59;;;;;;;;;;;;;;;;;;5074882;28;19919;-72
2021/12/02 09:01:25;;;;;;;;;;;;;;;;;;5074584;28;19916;-72
2021/12/02 09:03:51;;;;;;;;;;;;;;;;;;5073761;28;19921;-72
2021/12/02 09:06:21;;;;;;;;;;;;;;;;;;5074110;28;19912;-72
2021/12/02 09:08:47;;;;;;;;;;;;;;;;;;5073941;28;19979;-72
2021/12/02 09:11:13;;;;;;;;;;;;;;;;;;5073185;28;19932;-72
2021/12/02 09:13:39;;;;;;;;;;;;;;;;;;5072748;28;19908;-72
2021/12/02 09:16:05;;;;;;;;;;;;;;;;;;5073062;28;19916;-72
2021/12/02 09:18:30;;;;;;;;;;;;;;;;;;5073536;28;19931;-72
2021/12/02 09:20:58;;;;;;;;;;;;;;;;;;5072896;28;19909;-72
2021/12/02 09:23:23;;;;;;;;;;;;;;;;;;5073290;28;19909;-72
2021/12/02 09:25:49;;;;;;;;;;;;;;;;;;5074057;28;19913;-72
2021/12/02 09:28:15;;;;;;;;;;;;;;;;;;5056146;28;19917;-72
2021/12/02 09:30:41;;;;;;;;;;;;;;;;;;5074115;28;19909;-72
2021/12/02 09:33:07;;;;;;;;;;;;;;;;;;5073588;28;20415;-72
2021/12/02 09:35:33;;;;;;;;;;;;;;;;;;5074151;28;19908;-72
2021/12/02 09:37:59;;;;;;;;;;;;;;;;;;5072504;28;19909;-71
2021/12/02 09:40:25;;;;;;;;;;;;;;;;;;5073913;28;19915;-72
2021/12/02 09:42:50;;;;;;;;;;;;;;;;;;5073541;28;19909;-71
2021/12/02 09:45:16;;;;;;;;;;;;;;;;;;5073795;28;19909;-72
2021/12/02 09:47:43;;;;;;;;;;;;;;;;;;5073339;28;19970;-72
2021/12/02 09:50:11;;;;;;;;;;;;;;;;;;5073631;28;19909;-72
2021/12/02 09:52:39;;;;;;;;;;;;;;;;;;5073607;28;20276;-72
2021/12/02 09:55:10;;;;;;;;;;;;;;;;;;5073738;28;19948;-72
2021/12/02 09:57:41;;;;;;;;;;;;;;;;;;5073559;28;19905;-72
2021/12/02 10:00:07;;;;;;;;;;;;;;;;;;5073457;28;19908;-71
2021/12/02 10:02:41;;;;;;;;;;;;;;;;;;5073405;28;20284;-71
2021/12/02 10:05:09;;;;;;;;;;;;;;;;;;5073397;28;19959;-72
2021/12/02 10:07:45;;;;;;;;;;;;;;;;;;5073329;28;20261;-72
2021/12/02 10:10:15;;;;;;;;;;;;;;;;;;5073507;28;20363;-72
2021/12/02 10:12:49;;;;;;;;;;;;;;;;;;5073062;28;19920;-72
2021/12/02 10:15:17;;;;;;;;;;;;;;;;;;5073460;28;20368;-72
2021/12/02 10:22:46;;;;;;;;;;;;;;;;;;5073264;28;19909;-72
2021/12/02 10:25:12;;;;;;;;;;;;;;;;;;5055033;28;19932;-72
2021/12/02 10:27:38;;;;;;;;;;;;;;;;;;5073006;28;20013;-72
2021/12/02 10:30:04;;;;;;;;;;;;;;;;;;5072891;28;19915;-71
2021/12/02 10:32:34;;;;;;;;;;;;;;;;;;5072870;28;19989;-72
2021/12/02 10:35:01;;;;;;;;;;;;;;;;;;5073082;28;19914;-72
2021/12/02 10:37:26;;;;;;;;;;;;;;;;;;5072785;28;19908;-72
2021/12/02 10:39:52;;;;;;;;;;;;;;;;;;5072552;28;19923;-72
2021/12/02 10:42:19;;;;;;;;;;;;;;;;;;5072856;28;19912;-71
2021/12/02 10:44:45;;;;;;;;;;;;;;;;;;5072215;28;20257;-71
2021/12/02 10:47:11;;;;;;;;;;;;;;;;;;5072562;28;20019;-72
2021/12/02 10:49:39;;;;;;;;;;;;;;;;;;5072327;28;19908;-72
2021/12/02 10:52:06;;;;;;;;;;;;;;;;;;5072217;28;19909;-72
2021/12/02 10:54:32;;;;;;;;;;;;;;;;;;5072495;28;19909;-72
2021/12/02 10:56:58;;;;;;;;;;;;;;;;;;5072134;28;20011;-71
2021/12/02 10:59:24;;;;;;;;;;;;;;;;;;5072228;28;19913;-72
2021/12/02 11:01:49;;;;;;;;;;;;;;;;;;5072537;28;19919;-72
2021/12/02 11:04:15;;;;;;;;;;;;;;;;;;5072624;28;19908;-72
2021/12/02 11:06:41;;;;;;;;;;;;;;;;;;5072653;28;20016;-68
2021/12/02 11:09:07;;;;;;;;;;;;;;;;;;5072629;28;19923;-72
2021/12/02 11:11:33;;;;;;;;;;;;;;;;;;5072383;28;19927;-72
2021/12/02 11:14:01;;;;;;;;;;;;;;;;;;5054710;28;19954;-72
2021/12/02 11:16:27;;;;;;;;;;;;;;;;;;5072659;28;19908;-72
2021/12/02 11:18:53;;;;;;;;;;;;;;;;;;5072621;28;19905;-72
2021/12/02 11:21:18;;;;;;;;;;;;;;;;;;5054492;28;19918;-72
2021/12/02 11:23:47;;;;;;;;;;;;;;;;;;5072662;28;20380;-72
2021/12/02 11:26:13;;;;;;;;;;;;;;;;;;5072579;28;19905;-71
2021/12/02 11:28:39;;;;;;;;;;;;;;;;;;5072285;28;19966;-72
2021/12/02 11:31:05;;;;;;;;;;;;;;;;;;5072611;28;20414;-72
2021/12/02 11:33:31;;;;;;;;;;;;;;;;;;5072123;28;20409;-71
2021/12/02 11:35:57;;;;;;;;;;;;;;;;;;5072353;28;19909;-70
2021/12/02 11:38:23;;;;;;;;;;;;;;;;;;5072672;28;19909;-70
2021/12/02 11:40:50;;;;;;;;;;;;;;;;;;5072269;28;20029;-71
2021/12/02 11:43:15;;;;;;;;;;;;;;;;;;5072107;28;20497;-72
2021/12/02 11:45:48;;;;;;;;;;;;;;;;;;5072552;28;20001;-70
2021/12/02 11:48:14;;;;;;;;;;;;;;;;;;5072350;28;20395;-73
2021/12/02 11:50:40;;;;;;;;;;;;;;;;;;5072278;28;19944;-71
2021/12/02 11:53:06;;;;;;;;;;;;;;;;;;5072110;28;20010;-70
2021/12/02 11:55:31;;;;;;;;;;;;;;;;;;5072270;28;20005;-72
2021/12/02 11:57:57;;;;;;;;;;;;;;;;;;5074928;28;19920;-71
2021/12/02 12:00:23;;;;;;;;;;;;;;;;;;5075503;28;19915;-71
2021/12/02 12:02:49;;;;;;;;;;;;;;;;;;5075415;28;19995;-70
2021/12/02 12:05:15;;;;;;;;;;;;;;;;;;5075532;28;19912;-70
2021/12/02 12:07:41;;;;;;;;;;;;;;;;;;5075525;28;20386;-72
2021/12/02 12:10:07;;;;;;;;;;;;;;;;;;5075290;28;20392;-72
2021/12/02 12:12:33;;;;;;;;;;;;;;;;;;5075274;28;20007;-72
2021/12/02 12:14:59;;;;;;;;;;;;;;;;;;5075457;28;19962;-70
2021/12/02 12:17:25;;;;;;;;;;;;;;;;;;5075470;28;19908;-71
2021/12/02 12:19:50;;;;;;;;;;;;;;;;;;5075432;28;19919;-72
2021/12/02 12:22:16;;;;;;;;;;;;;;;;;;5075331;28;20320;-73
2021/12/02 12:24:42;;;;;;;;;;;;;;;;;;5075345;28;19909;-71
2021/12/02 12:27:08;;;;;;;;;;;;;;;;;;5075200;28;20364;-70
2021/12/02 12:29:34;;;;;;;;;;;;;;;;;;5075358;28;19912;-73
2021/12/02 12:32:16;;;;;;;;;;;;;;;;;;5075195;28;19999;-72
2021/12/02 12:34:51;;;;;;;;;;;;;;;;;;5075170;28;19961;-69
2021/12/02 12:37:26;;;;;;;;;;;;;;;;;;5075090;28;19912;-69
2021/12/02 12:39:51;;;;;;;;;;;;;;;;;;5075198;28;19912;-69
2021/12/02 12:42:17;;;;;;;;;;;;;;;;;;5074787;28;19915;-68
2021/12/02 12:44:43;;;;;;;;;;;;;;;;;;5075003;28;19961;-69
2021/12/02 12:47:09;;;;;;;;;;;;;;;;;;5074945;28;19923;-69
2021/12/02 12:49:35;;;;;;;;;;;;;;;;;;5074614;28;20356;-68
2021/12/02 12:52:01;;;;;;;;;;;;;;;;;;5074654;28;19909;-69
2021/12/02 12:54:27;;;;;;;;;;;;;;;;;;5074833;28;19909;-69
2021/12/02 12:56:53;;;;;;;;;;;;;;;;;;5074765;28;20268;-69
2021/12/02 12:59:19;;;;;;;;;;;;;;;;;;5074440;28;19916;-69
2021/12/02 13:01:44;;;;;;;;;;;;;;;;;;5074699;28;19938;-69
2021/12/02 13:04:11;;;;;;;;;;;;;;;;;;5074580;28;19951;-69
2021/12/02 13:06:38;;;;;;;;;;;;;;;;;;5074362;28;19908;-69
2021/12/02 13:09:06;;;;;;;;;;;;;;;;;;5073884;28;19913;-69
2021/12/02 13:11:32;;;;;;;;;;;;;;;;;;5074310;28;20440;-69
2021/12/02 13:13:58;;;;;;;;;;;;;;;;;;5074200;28;19912;-69
2021/12/02 13:16:24;;;;;;;;;;;;;;;;;;5074444;28;19915;-69
2021/12/02 13:18:50;;;;;;;;;;;;;;;;;;5056241;28;20394;-69
2021/12/02 13:21:16;;;;;;;;;;;;;;;;;;5074041;28;19931;-69
2021/12/02 13:23:41;;;;;;;;;;;;;;;;;;5074176;28;19909;-69
2021/12/02 13:26:10;;;;;;;;;;;;;;;;;;5074236;28;19915;-69
2021/12/02 13:28:36;;;;;;;;;;;;;;;;;;5074116;28;19920;-68
2021/12/02 13:31:03;;;;;;;;;;;;;;;;;;5074263;28;20344;-69
2021/12/02 13:33:29;;;;;;;;;;;;;;;;;;5074984;28;20292;-67
2021/12/02 13:35:55;;;;;;;;;;;;;;;;;;5076392;28;19909;-69
2021/12/02 13:38:21;;;;;;;;;;;;;;;;;;5074399;28;20387;-69
2021/12/02 13:40:46;;;;;;;;;;;;;;;;;;5073806;28;19970;-69
2021/12/02 13:43:14;;;;;;;;;;;;;;;;;;5073951;28;19915;-69
2021/12/02 13:45:39;;;;;;;;;;;;;;;;;;5073996;28;19909;-68
2021/12/02 13:48:05;;;;;;;;;;;;;;;;;;5073551;28;20372;-69
2021/12/02 13:50:31;;;;;;;;;;;;;;;;;;5073480;28;19913;-69
2021/12/02 13:52:57;;;;;;;;;;;;;;;;;;5073610;28;19916;-69
2021/12/02 13:55:28;;;;;;;;;;;;;;;;;;5073531;28;19991;-69
2021/12/02 13:57:56;;;;;;;;;;;;;;;;;;5073666;28;19916;-69
2021/12/02 14:00:22;;;;;;;;;;;;;;;;;;5073483;28;20387;-68
2021/12/02 14:02:48;;;;;;;;;;;;;;;;;;5073346;28;19916;-69
2021/12/02 14:05:14;;;;;;;;;;;;;;;;;;5055385;28;19913;-69
2021/12/02 14:07:40;;;;;;;;;;;;;;;;;;5054906;28;20327;-69
2021/12/02 14:10:06;;;;;;;;;;;;;;;;;;5072759;28;19908;-69
2021/12/02 14:12:32;;;;;;;;;;;;;;;;;;5072721;28;19920;-67
2021/12/02 14:14:58;;;;;;;;;;;;;;;;;;5072751;28;19962;-68
2021/12/02 14:17:23;;;;;;;;;;;;;;;;;;5072629;28;19914;-68
2021/12/02 14:19:49;;;;;;;;;;;;;;;;;;5072304;28;19913;-69
2021/12/02 14:22:15;;;;;;;;;;;;;;;;;;5073198;28;20007;-69
2021/12/02 14:24:41;;;;;;;;;;;;;;;;;;5073143;28;19909;-68
2021/12/02 14:27:07;;;;;;;;;;;;;;;;;;5073144;28;19917;-69
2021/12/02 14:29:34;;;;;;;;;;;;;;;;;;5073021;28;19916;-68
2021/12/02 14:32:02;;;;;;;;;;;;;;;;;;5073052;28;19999;-69
2021/12/02 14:34:28;;;;;;;;;;;;;;;;;;5073064;28;19983;-67
2021/12/02 14:36:55;;;;;;;;;;;;;;;;;;5054894;28;19913;-69
2021/12/02 14:39:22;;;;;;;;;;;;;;;;;;5072859;28;19954;-69
2021/12/02 14:41:48;;;;;;;;;;;;;;;;;;5073000;28;19954;-69
2021/12/02 14:44:14;;;;;;;;;;;;;;;;;;5072903;28;19931;-67
2021/12/02 14:46:40;;;;;;;;;;;;;;;;;;5072767;28;20352;-68
2021/12/02 14:49:06;;;;;;;;;;;;;;;;;;5072762;28;19909;-68
2021/12/02 14:51:31;;;;;;;;;;;;;;;;;;5072820;28;20364;-68
2021/12/02 14:53:57;;;;;;;;;;;;;;;;;;5072903;28;19909;-68
2021/12/02 14:56:23;;;;;;;;;;;;;;;;;;5073121;28;19909;-68
2021/12/02 14:58:49;;;;;;;;;;;;;;;;;;5072678;28;19931;-68
2021/12/02 15:01:15;;;;;;;;;;;;;;;;;;5072755;28;19961;-68
2021/12/02 15:03:43;;;;;;;;;;;;;;;;;;5072649;28;19909;-68
2021/12/02 15:06:09;;;;;;;;;;;;;;;;;;5072666;28;20013;-69
2021/12/02 15:08:35;;;;;;;;;;;;;;;;;;5072758;28;19955;-68
2021/12/02 15:11:01;;;;;;;;;;;;;;;;;;5072533;28;20360;-69
2021/12/02 15:13:27;;;;;;;;;;;;;;;;;;5072638;28;19911;-68
2021/12/02 15:15:54;;;;;;;;;;;;;;;;;;5072402;28;19909;-69
2021/12/02 15:18:20;;;;;;;;;;;;;;;;;;5072649;28;20365;-68
2021/12/02 15:20:46;;;;;;;;;;;;;;;;;;5072548;28;19955;-68
2021/12/02 15:23:20;;;;;;;;;;;;;;;;;;5072552;28;20430;-68
2021/12/02 15:25:48;;;;;;;;;;;;;;;;;;5072649;28;20286;-68
2021/12/02 15:28:15;;;;;;;;;;;;;;;;;;5053919;28;20272;-68
2021/12/02 15:30:41;;;;;;;;;;;;;;;;;;5072785;28;20398;-68
2021/12/02 15:33:06;;;;;;;;;;;;;;;;;;5076237;28;19909;-68
2021/12/02 15:35:33;;;;;;;;;;;;;;;;;;5076327;28;20360;-68
2021/12/02 15:38:01;;;;;;;;;;;;;;;;;;5076264;28;20368;-68
2021/12/02 15:40:27;;;;;;;;;;;;;;;;;;5076298;28;19913;-68
2021/12/02 15:42:54;;;;;;;;;;;;;;;;;;5057982;28;19916;-68
2021/12/02 15:45:20;;;;;;;;;;;;;;;;;;5076129;28;19909;-69
2021/12/02 15:47:46;;;;;;;;;;;;;;;;;;5075482;28;20345;-70
2021/12/02 15:50:15;;;;;;;;;;;;;;;;;;5055684;28;19915;-69
2021/12/02 15:52:43;;;;;;;;;;;;;;;;;;5055915;28;19952;-68
2021/12/02 15:55:08;;;;;;;;;;;;;;;;;;5059577;28;19974;-72
2021/12/02 15:57:35;;;;;;;;;;;;;;;;;;5042086;28;20309;-70
2021/12/02 16:00:01;;;;;;;;;;;;;;;;;;5056568;28;19909;-71
2021/12/02 16:02:30;;;;;;;;;;;;;;;;;;5038021;28;20300;-69
2021/12/02 16:05:05;;;;;;;;;;;;;;;;;;5056119;28;19916;-69
2021/12/02 16:07:36;;;;;;;;;;;;;;;;;;5055739;28;19917;-68
2021/12/02 16:12:40;;;;;;;;;;;;;;;;;;5055376;28;19920;-70
2021/12/02 16:15:07;;;;;;;;;;;;;;;;;;5037775;28;19909;-68
2021/12/02 16:17:34;;;;;;;;;;;;;;;;;;5037726;28;20281;-69
2021/12/02 16:20:00;;;;;;;;;;;;;;;;;;5055349;28;20323;-70
2021/12/02 16:22:28;;;;;;;;;;;;;;;;;;5037492;28;20392;-70
2021/12/02 16:24:53;;;;;;;;;;;;;;;;;;5055414;28;20054;-71
2021/12/02 16:27:19;;;;;;;;;;;;;;;;;;5055785;28;20082;-72
2021/12/02 16:29:45;;;;;;;;;;;;;;;;;;5055404;28;19909;-69
2021/12/02 16:32:12;;;;;;;;;;;;;;;;;;5055449;28;19908;-69
2021/12/02 16:34:38;;;;;;;;;;;;;;;;;;5055040;28;19974;-70
2021/12/02 16:37:03;;;;;;;;;;;;;;;;;;5055107;28;20033;-72
2021/12/02 16:39:30;;;;;;;;;;;;;;;;;;5055139;28;19966;-69
2021/12/02 16:41:56;;;;;;;;;;;;;;;;;;5054857;28;20289;-71
2021/12/02 16:44:22;;;;;;;;;;;;;;;;;;5054369;28;19909;-73
2021/12/02 16:46:48;;;;;;;;;;;;;;;;;;5054997;28;19923;-72
2021/12/02 16:49:14;;;;;;;;;;;;;;;;;;5054967;28;19913;-70
2021/12/02 16:51:39;;;;;;;;;;;;;;;;;;5054638;28;20318;-71
2021/12/02 16:54:05;;;;;;;;;;;;;;;;;;5054924;28;19908;-70
2021/12/02 16:56:31;;;;;;;;;;;;;;;;;;5054849;28;20071;-69